Time;durP1;ratioP1;P1;durP2;ratioP2;P2;SDS_P1;SDS_P2;PMS_P1;PMS_P2;Temp;Humidity;BMP_temperature;BMP_pressure;BME280_temperature;BME280_humidity;BME280_pressure;Samples;Min_cycle;Max_cycle;Signal;HPM_P1;HPM_P2
2023/07/16 00:01:52;;;;;;;;;6.00;5.00;;;;;;;;5080922;27;45364;-46
2023/07/16 00:04:18;;;;;;;;;6.00;6.00;;;;;;;;5099157;27;45374;-46
2023/07/16 00:06:43;;;;;;;;;7.00;6.75;;;;;;;;5098975;27;45444;-47
2023/07/16 00:09:08;;;;;;;;;7.75;5.75;;;;;;;;5099008;27;45500;-43
2023/07/16 00:11:33;;;;;;;;;3.75;3.75;;;;;;;;5098858;27;45560;-47
2023/07/16 00:13:58;;;;;;;;;8.25;6.50;;;;;;;;5099039;27;45316;-46
2023/07/16 00:16:24;;;;;;;;;8.25;6.25;;;;;;;;5098983;27;45441;-46
2023/07/16 00:18:49;;;;;;;;;10.50;6.25;;;;;;;;5097859;27;45317;-47
2023/07/16 00:21:14;;;;;;;;;7.75;3.75;;;;;;;;5098901;27;45424;-43
2023/07/16 00:23:39;;;;;;;;;13.00;7.00;;;;;;;;5098046;27;45322;-47
2023/07/16 00:26:24;;;;;;;;;7.25;6.25;;;;;;;;5098921;27;46500;-46
2023/07/16 00:28:49;;;;;;;;;8.00;5.00;;;;;;;;5027691;27;45377;-48
2023/07/16 00:31:14;;;;;;;;;7.00;6.50;;;;;;;;5098245;27;45258;-46
2023/07/16 00:33:39;;;;;;;;;6.25;5.50;;;;;;;;5098765;27;45216;-43
2023/07/16 00:36:04;;;;;;;;;8.25;6.75;;;;;;;;5098519;27;46244;-45
2023/07/16 00:38:30;;;;;;;;;8.75;6.00;;;;;;;;5098332;27;45358;-46
2023/07/16 00:40:56;;;;;;;;;6.25;6.25;;;;;;;;5098488;27;45313;-44
2023/07/16 00:43:21;;;;;;;;;9.50;7.25;;;;;;;;5098682;27;45169;-44
2023/07/16 00:45:46;;;;;;;;;7.75;6.25;;;;;;;;5098399;27;45293;-45
2023/07/16 00:48:12;;;;;;;;;13.00;7.00;;;;;;;;5098318;27;45299;-47
2023/07/16 00:50:39;;;;;;;;;5.50;4.50;;;;;;;;5098476;27;45263;-46
2023/07/16 00:53:05;;;;;;;;;6.75;5.00;;;;;;;;5098567;27;45244;-44
2023/07/16 00:55:30;;;;;;;;;8.00;6.00;;;;;;;;5097945;27;46087;-47
2023/07/16 00:57:57;;;;;;;;;7.75;5.50;;;;;;;;5098243;27;45318;-46
2023/07/16 01:00:23;;;;;;;;;6.50;6.00;;;;;;;;5098225;27;45424;-47
2023/07/16 01:02:48;;;;;;;;;6.25;5.50;;;;;;;;5098356;27;45390;-46
2023/07/16 01:05:13;;;;;;;;;12.25;8.00;;;;;;;;5097956;27;45315;-45
2023/07/16 01:07:44;;;;;;;;;12.50;7.25;;;;;;;;5097862;27;45323;-47
2023/07/16 01:10:09;;;;;;;;;8.00;6.75;;;;;;;;5097913;27;45242;-46
2023/07/16 01:12:36;;;;;;;;;12.50;6.75;;;;;;;;5098184;27;45673;-47
2023/07/16 01:15:01;;;;;;;;;10.00;7.00;;;;;;;;5097841;27;46266;-48
2023/07/16 01:17:26;;;;;;;;;8.25;8.25;;;;;;;;5097901;27;45358;-44
2023/07/16 01:19:52;;;;;;;;;5.25;5.25;;;;;;;;5097860;27;45310;-46
2023/07/16 01:22:36;;;;;;;;;7.00;6.00;;;;;;;;5097743;27;45408;-46
2023/07/16 01:25:11;;;;;;;;;7.50;6.50;;;;;;;;5097486;27;46216;-46
2023/07/16 01:27:59;;;;;;;;;10.50;5.75;;;;;;;;5097694;27;45346;-46
2023/07/16 01:30:26;;;;;;;;;7.25;6.75;;;;;;;;5034573;28;45394;-45
2023/07/16 01:32:52;;;;;;;;;10.00;7.25;;;;;;;;5034693;28;45246;-47
2023/07/16 01:35:18;;;;;;;;;8.00;6.00;;;;;;;;5033862;28;46234;-45
2023/07/16 01:37:43;;;;;;;;;6.25;5.75;;;;;;;;5034597;28;45466;-47
2023/07/16 01:40:09;;;;;;;;;9.75;6.00;;;;;;;;5034583;28;45372;-44
2023/07/16 01:42:34;;;;;;;;;12.75;7.50;;;;;;;;5034581;28;45522;-44
2023/07/16 01:44:59;;;;;;;;;10.00;6.75;;;;;;;;5034125;28;46259;-47
2023/07/16 01:47:39;;;;;;;;;9.00;8.00;;;;;;;;5034307;28;45419;-43
2023/07/16 01:50:05;;;;;;;;;10.67;8.67;;;;;;;;5034455;28;45377;-46
2023/07/16 01:52:30;;;;;;;;;10.33;6.67;;;;;;;;5034533;28;45328;-46
2023/07/16 01:54:55;;;;;;;;;11.00;7.50;;;;;;;;5034020;28;46231;-45
2023/07/16 01:57:20;;;;;;;;;7.33;7.00;;;;;;;;5034024;28;45362;-45
2023/07/16 01:59:46;;;;;;;;;13.33;11.33;;;;;;;;5034271;28;45539;-44
2023/07/16 02:02:11;;;;;;;;;8.67;7.67;;;;;;;;5034648;28;45343;-44
2023/07/16 02:04:37;;;;;;;;;7.33;6.00;;;;;;;;5034001;28;46309;-43
2023/07/16 02:07:02;;;;;;;;;8.67;8.33;;;;;;;;5055798;27;45547;-46
2023/07/16 02:09:28;;;;;;;;;13.00;7.33;;;;;;;;5097337;27;45368;-44
2023/07/16 02:11:54;;;;;;;;;9.00;8.00;;;;;;;;5097247;27;45629;-46
2023/07/16 02:14:19;;;;;;;;;10.67;7.00;;;;;;;;5097082;27;46370;-45
2023/07/16 02:16:44;;;;;;;;;6.33;6.33;;;;;;;;5097174;27;45263;-43
2023/07/16 02:19:09;;;;;;;;;6.33;6.33;;;;;;;;5097200;27;45361;-44
2023/07/16 02:21:34;;;;;;;;;10.67;8.33;;;;;;;;5097473;27;45551;-44
2023/07/16 02:24:00;;;;;;;;;9.33;7.00;;;;;;;;5097052;27;46943;-45
2023/07/16 02:26:25;;;;;;;;;12.00;8.00;;;;;;;;5097077;27;45357;-46
2023/07/16 02:28:50;;;;;;;;;14.33;7.00;;;;;;;;5095990;27;45347;-44
2023/07/16 02:31:15;;;;;;;;;7.67;5.33;;;;;;;;5097030;27;45261;-44
2023/07/16 02:33:41;;;;;;;;;11.33;7.33;;;;;;;;5096880;27;46983;-44
2023/07/16 02:36:06;;;;;;;;;8.00;8.00;;;;;;;;5096879;27;45374;-43
2023/07/16 02:38:31;;;;;;;;;11.00;7.67;;;;;;;;5097078;27;45479;-45
2023/07/16 02:40:56;;;;;;;;;10.33;6.00;;;;;;;;5096964;27;45282;-45
2023/07/16 02:43:21;;;;;;;;;6.00;6.00;;;;;;;;5096780;27;46352;-44
2023/07/16 02:45:46;;;;;;;;;8.33;7.33;;;;;;;;5097047;27;45423;-46
2023/07/16 02:48:12;;;;;;;;;8.00;7.00;;;;;;;;5099128;27;45298;-45
2023/07/16 02:50:37;;;;;;;;;10.00;8.33;;;;;;;;5100594;27;45321;-43
2023/07/16 02:53:06;;;;;;;;;7.33;6.00;;;;;;;;5100070;27;45464;-46
2023/07/16 02:55:32;;;;;;;;;5.00;5.00;;;;;;;;5100296;27;45459;-45
2023/07/16 02:57:57;;;;;;;;;7.33;5.33;;;;;;;;5100194;27;45377;-43
2023/07/16 03:00:23;;;;;;;;;8.67;7.00;;;;;;;;5080844;27;45294;-46
2023/07/16 03:02:49;;;;;;;;;10.33;6.33;;;;;;;;5100126;27;45783;-46
2023/07/16 03:05:15;;;;;;;;;9.00;5.33;;;;;;;;5099942;27;45353;-44
2023/07/16 03:07:40;;;;;;;;;9.33;7.33;;;;;;;;5100028;27;45247;-45
2023/07/16 03:10:06;;;;;;;;;8.67;7.00;;;;;;;;5100377;27;45383;-45
2023/07/16 03:12:31;;;;;;;;;12.00;8.00;;;;;;;;5099566;27;46313;-44
2023/07/16 03:14:56;;;;;;;;;8.67;5.67;;;;;;;;5099959;27;45320;-45
2023/07/16 03:17:22;;;;;;;;;7.00;7.00;;;;;;;;5099922;27;45492;-42
2023/07/16 03:19:47;;;;;;;;;11.33;6.00;;;;;;;;5099823;27;45461;-44
2023/07/16 03:22:12;;;;;;;;;7.00;7.00;;;;;;;;5099825;27;46221;-45
2023/07/16 03:24:37;;;;;;;;;10.67;9.00;;;;;;;;5099650;27;45317;-47
2023/07/16 03:27:03;;;;;;;;;10.00;6.67;;;;;;;;5098649;27;45370;-48
2023/07/16 03:29:28;;;;;;;;;9.67;8.33;;;;;;;;5099931;27;45415;-45
2023/07/16 03:31:53;;;;;;;;;7.67;6.00;;;;;;;;5099488;27;45977;-45
2023/07/16 03:34:18;;;;;;;;;7.67;6.00;;;;;;;;5098568;27;45369;-45
2023/07/16 03:36:44;;;;;;;;;5.67;5.67;;;;;;;;5099528;27;45232;-45
2023/07/16 03:39:09;;;;;;;;;10.33;6.00;;;;;;;;5099905;27;45412;-45
2023/07/16 03:41:34;;;;;;;;;9.00;5.00;;;;;;;;5099244;27;46337;-47
2023/07/16 03:43:59;;;;;;;;;8.00;7.00;;;;;;;;5099500;27;45339;-46
2023/07/16 03:46:24;;;;;;;;;10.67;8.00;;;;;;;;5099568;27;45338;-45
2023/07/16 03:48:51;;;;;;;;;7.00;5.33;;;;;;;;5099551;27;45346;-44
2023/07/16 03:51:17;;;;;;;;;5.67;3.00;;;;;;;;5099441;27;46259;-45
2023/07/16 03:53:42;;;;;;;;;6.33;6.33;;;;;;;;5099528;27;45304;-44
2023/07/16 03:56:07;;;;;;;;;10.67;7.67;;;;;;;;5099471;27;45254;-45
2023/07/16 03:58:32;;;;;;;;;7.00;7.00;;;;;;;;5099475;27;45206;-42
2023/07/16 04:00:58;;;;;;;;;6.67;6.00;;;;;;;;5099116;27;46133;-45
2023/07/16 04:03:23;;;;;;;;;11.00;7.00;;;;;;;;5099812;27;45345;-46
2023/07/16 04:05:49;;;;;;;;;9.00;8.00;;;;;;;;5099625;27;45288;-46
2023/07/16 04:08:14;;;;;;;;;9.00;6.00;;;;;;;;5100199;27;45294;-46
2023/07/16 04:10:39;;;;;;;;;5.00;5.00;;;;;;;;5098968;27;46342;-44
2023/07/16 04:13:04;;;;;;;;;5.00;5.00;;;;;;;;5098858;27;45474;-46
2023/07/16 04:15:29;;;;;;;;;7.67;7.00;;;;;;;;5099270;27;45303;-46
2023/07/16 04:17:55;;;;;;;;;12.67;7.00;;;;;;;;5099124;27;45265;-46
2023/07/16 04:20:20;;;;;;;;;8.67;6.33;;;;;;;;5098715;27;45314;-43
2023/07/16 04:22:45;;;;;;;;;6.33;5.00;;;;;;;;5098572;27;45311;-46
2023/07/16 04:25:10;;;;;;;;;10.33;6.33;;;;;;;;5098769;27;45220;-44
2023/07/16 04:27:36;;;;;;;;;14.00;8.00;;;;;;;;5099024;27;45467;-45
2023/07/16 04:30:01;;;;;;;;;7.00;7.00;;;;;;;;5098664;27;45353;-46
2023/07/16 04:32:26;;;;;;;;;6.33;4.67;;;;;;;;5098584;27;45411;-45
2023/07/16 04:34:52;;;;;;;;;6.67;5.67;;;;;;;;5098554;27;45345;-45
2023/07/16 04:37:17;;;;;;;;;14.00;7.00;;;;;;;;5098785;27;45269;-46
2023/07/16 04:39:42;;;;;;;;;8.00;5.00;;;;;;;;5098217;27;46059;-46
2023/07/16 04:42:07;;;;;;;;;13.00;7.00;;;;;;;;5098422;27;45577;-46
2023/07/16 04:44:32;;;;;;;;;7.33;6.00;;;;;;;;5098694;27;45335;-46
2023/07/16 04:46:58;;;;;;;;;9.67;7.00;;;;;;;;5098596;27;45306;-45
2023/07/16 04:49:23;;;;;;;;;11.67;9.33;;;;;;;;5098238;27;45408;-45
2023/07/16 04:51:48;;;;;;;;;10.33;9.67;;;;;;;;5098511;27;45449;-45
2023/07/16 04:54:13;;;;;;;;;11.33;5.00;;;;;;;;5098359;27;45334;-46
2023/07/16 04:56:38;;;;;;;;;9.00;7.00;;;;;;;;5098547;27;45435;-46
2023/07/16 04:59:03;;;;;;;;;8.67;6.33;;;;;;;;5098228;27;45434;-44
2023/07/16 05:01:29;;;;;;;;;12.00;8.00;;;;;;;;5098139;27;45456;-45
2023/07/16 05:03:54;;;;;;;;;9.67;6.00;;;;;;;;5098210;27;45290;-46
2023/07/16 05:06:19;;;;;;;;;10.67;6.67;;;;;;;;5098548;27;45323;-44
2023/07/16 05:08:44;;;;;;;;;12.67;8.67;;;;;;;;5097322;27;45244;-45
2023/07/16 05:11:10;;;;;;;;;8.67;5.67;;;;;;;;5097906;27;45407;-46
2023/07/16 05:13:35;;;;;;;;;8.00;7.00;;;;;;;;5098041;27;45310;-44
2023/07/16 05:16:00;;;;;;;;;14.33;9.33;;;;;;;;5098215;27;45348;-43
2023/07/16 05:18:25;;;;;;;;;10.33;8.67;;;;;;;;5097666;27;46044;-46
2023/07/16 05:20:50;;;;;;;;;12.00;6.67;;;;;;;;5097856;27;45425;-43
2023/07/16 05:23:16;;;;;;;;;11.67;9.67;;;;;;;;5079726;27;45298;-45
2023/07/16 05:25:50;;;;;;;;;13.67;10.00;;;;;;;;5098061;27;45389;-47
2023/07/16 05:28:16;;;;;;;;;7.67;7.00;;;;;;;;5097533;27;46375;-47
2023/07/16 05:30:41;;;;;;;;;14.33;8.33;;;;;;;;5097526;27;45396;-45
2023/07/16 05:33:06;;;;;;;;;13.00;7.33;;;;;;;;5097944;27;45695;-47
2023/07/16 05:35:31;;;;;;;;;10.67;9.00;;;;;;;;5098024;27;45365;-47
2023/07/16 05:37:57;;;;;;;;;9.33;9.33;;;;;;;;5097616;27;46204;-44
2023/07/16 05:40:22;;;;;;;;;8.67;7.00;;;;;;;;5097555;27;45452;-46
2023/07/16 05:42:47;;;;;;;;;11.00;7.33;;;;;;;;5097763;27;45194;-45
2023/07/16 05:45:12;;;;;;;;;12.00;8.00;;;;;;;;5098469;27;45425;-44
2023/07/16 05:47:37;;;;;;;;;15.00;6.67;;;;;;;;5097509;27;46956;-46
2023/07/16 05:50:03;;;;;;;;;14.33;12.67;;;;;;;;5097765;27;45382;-45
2023/07/16 05:52:28;;;;;;;;;10.67;7.00;;;;;;;;5097684;27;45437;-46
2023/07/16 05:54:53;;;;;;;;;9.00;8.00;;;;;;;;5097688;27;45516;-44
2023/07/16 05:57:18;;;;;;;;;11.00;8.00;;;;;;;;5097431;27;46037;-46
2023/07/16 05:59:44;;;;;;;;;15.00;9.67;;;;;;;;5097480;27;45274;-44
2023/07/16 06:02:09;;;;;;;;;17.67;11.00;;;;;;;;5097612;27;45212;-45
2023/07/16 06:04:34;;;;;;;;;15.00;11.00;;;;;;;;5097680;27;45432;-46
2023/07/16 06:06:59;;;;;;;;;12.33;9.00;;;;;;;;5097365;27;46162;-46
2023/07/16 06:09:24;;;;;;;;;15.67;10.67;;;;;;;;5097494;27;45362;-45
2023/07/16 06:11:50;;;;;;;;;11.33;9.00;;;;;;;;5097456;27;45234;-47
2023/07/16 06:14:15;;;;;;;;;8.00;8.00;;;;;;;;5097687;27;45282;-46
2023/07/16 06:16:41;;;;;;;;;13.00;8.50;;;;;;;;5097298;27;46124;-45
2023/07/16 06:19:06;;;;;;;;;10.00;8.67;;;;;;;;5097153;27;45294;-46
2023/07/16 06:21:31;;;;;;;;;12.67;7.00;;;;;;;;5098903;27;45368;-46
2023/07/16 06:23:56;;;;;;;;;12.00;9.67;;;;;;;;5101051;27;45282;-44
2023/07/16 06:26:21;;;;;;;;;16.33;9.33;;;;;;;;5100918;27;46460;-45
2023/07/16 06:28:49;;;;;;;;;15.33;9.00;;;;;;;;5100430;27;45500;-44
2023/07/16 06:31:15;;;;;;;;;6.67;6.67;;;;;;;;5099451;27;45325;-45
2023/07/16 06:33:40;;;;;;;;;12.00;7.33;;;;;;;;5100899;27;45286;-46
2023/07/16 06:36:05;;;;;;;;;11.00;7.00;;;;;;;;5100361;27;46334;-46
2023/07/16 06:38:30;;;;;;;;;9.67;7.00;;;;;;;;5100686;27;45566;-45
2023/07/16 06:40:56;;;;;;;;;15.33;7.67;;;;;;;;5100672;27;45929;-45
2023/07/16 06:43:21;;;;;;;;;8.67;5.67;;;;;;;;5100698;27;45514;-46
2023/07/16 06:45:48;;;;;;;;;10.00;7.33;;;;;;;;5100300;27;46417;-46
2023/07/16 06:48:13;;;;;;;;;9.00;7.00;;;;;;;;5100436;27;45371;-44
2023/07/16 06:50:39;;;;;;;;;7.25;6.75;;;;;;;;5099261;27;45380;-43
2023/07/16 06:53:04;;;;;;;;;8.75;8.00;;;;;;;;5100473;27;45195;-45
2023/07/16 06:55:29;;;;;;;;;7.75;6.50;;;;;;;;5100117;27;46352;-46
2023/07/16 06:57:54;;;;;;;;;13.50;10.25;;;;;;;;5100210;27;45287;-46
2023/07/16 07:00:20;;;;;;;;;7.75;6.00;;;;;;;;5099337;27;45487;-44
2023/07/16 07:02:45;;;;;;;;;9.25;8.25;;;;;;;;5100605;27;45373;-44
2023/07/16 07:05:10;;;;;;;;;10.75;7.75;;;;;;;;5100037;27;45411;-47
2023/07/16 07:07:35;;;;;;;;;8.25;7.50;;;;;;;;5100190;27;45349;-46
2023/07/16 07:10:00;;;;;;;;;10.25;6.50;;;;;;;;5100402;27;45299;-47
2023/07/16 07:12:26;;;;;;;;;10.25;7.25;;;;;;;;5100167;27;45270;-44
2023/07/16 07:14:51;;;;;;;;;9.25;6.25;;;;;;;;5100004;27;46387;-45
2023/07/16 07:17:16;;;;;;;;;5.75;5.25;;;;;;;;5099901;27;45354;-46
2023/07/16 07:19:42;;;;;;;;;10.00;6.00;;;;;;;;5081852;27;45334;-45
2023/07/16 07:22:07;;;;;;;;;7.20;7.20;;;;;;;;5082009;27;45420;-44
2023/07/16 07:24:33;;;;;;;;;8.00;8.00;;;;;;;;5100034;27;45738;-44
2023/07/16 07:26:58;;;;;;;;;6.75;5.00;;;;;;;;5100262;27;45472;-44
2023/07/16 07:29:23;;;;;;;;;6.00;6.00;;;;;;;;5100202;27;45498;-44
2023/07/16 07:31:48;;;;;;;;;5.25;5.25;;;;;;;;5099641;27;45307;-46
2023/07/16 07:34:13;;;;;;;;;7.00;4.75;;;;;;;;5099891;27;45973;-47
2023/07/16 07:36:39;;;;;;;;;8.25;6.25;;;;;;;;5099809;27;45290;-46
2023/07/16 07:39:04;;;;;;;;;6.00;6.00;;;;;;;;5100205;27;45265;-42
2023/07/16 07:41:29;;;;;;;;;9.00;5.50;;;;;;;;5100084;27;45395;-43
2023/07/16 07:43:54;;;;;;;;;6.00;6.00;;;;;;;;5099787;27;46909;-45
2023/07/16 07:46:19;;;;;;;;;6.50;5.50;;;;;;;;5099921;27;45397;-44
2023/07/16 07:48:45;;;;;;;;;6.50;5.25;;;;;;;;5099980;27;45428;-47
2023/07/16 07:51:10;;;;;;;;;6.75;5.50;;;;;;;;5100167;27;45517;-43
2023/07/16 07:53:35;;;;;;;;;9.25;5.75;;;;;;;;5099700;27;46190;-43
2023/07/16 07:56:00;;;;;;;;;10.00;6.75;;;;;;;;5099769;27;45338;-42
2023/07/16 07:58:25;;;;;;;;;8.50;6.50;;;;;;;;5099415;27;45326;-42
2023/07/16 08:00:51;;;;;;;;;5.75;5.00;;;;;;;;5099736;27;45457;-43
2023/07/16 08:03:16;;;;;;;;;9.25;7.50;;;;;;;;5081206;27;46145;-43
2023/07/16 08:05:41;;;;;;;;;4.75;4.00;;;;;;;;5081003;27;45390;-45
2023/07/16 08:08:06;;;;;;;;;7.50;5.25;;;;;;;;5099578;27;45308;-48
2023/07/16 08:10:31;;;;;;;;;4.50;4.00;;;;;;;;5099508;27;45382;-49
2023/07/16 08:12:57;;;;;;;;;6.50;5.50;;;;;;;;5099249;27;46279;-47
2023/07/16 08:15:22;;;;;;;;;5.00;4.00;;;;;;;;5099065;27;45406;-44
2023/07/16 08:17:47;;;;;;;;;10.75;5.00;;;;;;;;5098133;27;45292;-45
2023/07/16 08:20:13;;;;;;;;;5.75;4.00;;;;;;;;5099183;27;45511;-45
2023/07/16 08:22:38;;;;;;;;;5.50;5.00;;;;;;;;5098949;27;45229;-43
2023/07/16 08:25:04;;;;;;;;;8.00;6.00;;;;;;;;5098906;27;45267;-42
2023/07/16 08:27:30;;;;;;;;;4.25;3.75;;;;;;;;5098996;27;45199;-42
2023/07/16 08:29:55;;;;;;;;;8.25;4.25;;;;;;;;5099055;27;45223;-45
2023/07/16 08:32:21;;;;;;;;;6.50;5.50;;;;;;;;5098800;27;45434;-43
2023/07/16 08:34:46;;;;;;;;;7.25;4.00;;;;;;;;5098953;27;45376;-47
2023/07/16 08:37:11;;;;;;;;;8.25;4.75;;;;;;;;5098962;27;45354;-45
2023/07/16 08:39:36;;;;;;;;;8.75;7.00;;;;;;;;5099301;27;45207;-43
2023/07/16 08:42:03;;;;;;;;;6.40;4.00;;;;;;;;5098627;27;47452;-47
2023/07/16 08:44:29;;;;;;;;;7.60;5.40;;;;;;;;5097491;27;45346;-45
2023/07/16 08:46:54;;;;;;;;;7.75;5.25;;;;;;;;5098872;27;45313;-47
2023/07/16 08:49:19;;;;;;;;;6.50;4.50;;;;;;;;5099071;27;45283;-45
2023/07/16 08:51:48;;;;;;;;;5.00;5.00;;;;;;;;5098766;27;47092;-45
2023/07/16 08:54:16;;;;;;;;;5.60;4.20;;;;;;;;5098559;27;45374;-44
2023/07/16 08:56:44;;;;;;;;;4.20;3.80;;;;;;;;5097672;27;45152;-45
2023/07/16 08:59:09;;;;;;;;;4.00;4.00;;;;;;;;5098824;27;45457;-45
2023/07/16 09:01:35;;;;;;;;;8.50;4.50;;;;;;;;5098496;27;46277;-47
2023/07/16 09:04:01;;;;;;;;;3.25;3.25;;;;;;;;5098742;27;45194;-47
2023/07/16 09:06:26;;;;;;;;;3.75;3.00;;;;;;;;5098615;27;45401;-46
2023/07/16 09:08:52;;;;;;;;;5.50;2.50;;;;;;;;5098733;27;45433;-47
2023/07/16 09:11:21;;;;;;;;;3.00;3.00;;;;;;;;5098192;27;46569;-45
2023/07/16 09:13:46;;;;;;;;;7.00;5.60;;;;;;;;5097093;27;45404;-47
2023/07/16 09:16:12;;;;;;;;;4.75;4.75;;;;;;;;5098550;27;45227;-44
2023/07/16 09:18:39;;;;;;;;;5.50;4.25;;;;;;;;5098649;27;45405;-45
2023/07/16 09:21:06;;;;;;;;;5.20;4.00;;;;;;;;5098131;27;45420;-44
2023/07/16 09:23:33;;;;;;;;;2.60;2.60;;;;;;;;5098287;27;45349;-45
2023/07/16 09:25:58;;;;;;;;;8.00;3.40;;;;;;;;5098419;27;45272;-47
2023/07/16 09:28:23;;;;;;;;;5.50;2.75;;;;;;;;5098556;27;45235;-47
2023/07/16 09:30:50;;;;;;;;;7.50;3.25;;;;;;;;5097891;27;45995;-45
2023/07/16 09:33:19;;;;;;;;;6.40;4.80;;;;;;;;5098116;27;45263;-43
2023/07/16 09:35:47;;;;;;;;;7.00;4.40;;;;;;;;5098169;27;45277;-46
2023/07/16 09:38:12;;;;;;;;;4.20;3.40;;;;;;;;5098571;27;45318;-49
2023/07/16 09:40:38;;;;;;;;;3.75;3.75;;;;;;;;5097916;27;46038;-48
2023/07/16 09:43:07;;;;;;;;;7.80;3.00;;;;;;;;5098000;27;45309;-45
2023/07/16 09:45:32;;;;;;;;;3.40;3.40;;;;;;;;5098138;27;45225;-47
2023/07/16 09:47:57;;;;;;;;;7.50;3.75;;;;;;;;5098503;27;45150;-47
2023/07/16 09:50:23;;;;;;;;;7.50;4.75;;;;;;;;5097797;27;45581;-47
2023/07/16 09:52:49;;;;;;;;;7.00;4.00;;;;;;;;5097904;27;45363;-46
2023/07/16 09:55:14;;;;;;;;;4.00;4.00;;;;;;;;5099163;27;45399;-45
2023/07/16 09:57:42;;;;;;;;;7.75;4.00;;;;;;;;5101929;27;45347;-43
2023/07/16 10:00:12;;;;;;;;;5.40;3.80;;;;;;;;5101286;27;45405;-46
2023/07/16 10:02:37;;;;;;;;;5.80;3.20;;;;;;;;5101390;27;45373;-48
2023/07/16 10:05:12;;;;;;;;;6.50;3.50;;;;;;;;5101636;27;45260;-46
2023/07/16 10:07:38;;;;;;;;;6.20;4.20;;;;;;;;5101912;27;45618;-49
2023/07/16 10:10:07;;;;;;;;;6.25;3.25;;;;;;;;5101246;27;45422;-44
2023/07/16 10:12:32;;;;;;;;;7.20;5.80;;;;;;;;5100879;27;45669;-46
2023/07/16 10:14:58;;;;;;;;;6.00;3.25;;;;;;;;5101209;27;45417;-47
2023/07/16 10:17:24;;;;;;;;;4.25;4.00;;;;;;;;5100245;27;45247;-46
2023/07/16 10:19:59;;;;;;;;;5.00;5.00;;;;;;;;5101003;27;46224;-46
2023/07/16 10:22:38;;;;;;;;;3.00;3.00;;;;;;;;5101159;27;45219;-42
2023/07/16 10:25:18;;;;;;;;;2.00;2.00;;;;;;;;5101169;27;45453;-48
2023/07/16 10:27:44;;;;;;;;;5.60;4.80;;;;;;;;5070979;27;45471;-44
2023/07/16 10:30:10;;;;;;;;;4.00;2.40;;;;;;;;5096444;27;46274;-47
2023/07/16 10:32:35;;;;;;;;;7.00;4.00;;;;;;;;5080206;27;45436;-45
2023/07/16 10:35:01;;;;;;;;;4.75;2.75;;;;;;;;5097663;27;45238;-47
2023/07/16 10:37:26;;;;;;;;;3.50;3.00;;;;;;;;5097875;27;45631;-45
2023/07/16 10:39:52;;;;;;;;;3.00;3.00;;;;;;;;5097664;27;46126;-45
2023/07/16 10:42:19;;;;;;;;;4.40;2.80;;;;;;;;5096904;27;45468;-46
2023/07/16 10:44:44;;;;;;;;;2.80;2.80;;;;;;;;5097719;27;45582;-45
2023/07/16 10:47:18;;;;;;;;;3.50;2.75;;;;;;;;5097591;27;45422;-44
2023/07/16 10:49:44;;;;;;;;;5.40;4.20;;;;;;;;5097129;27;46220;-50
2023/07/16 10:52:09;;;;;;;;;3.80;3.20;;;;;;;;5096890;27;45368;-44
2023/07/16 10:54:34;;;;;;;;;5.50;3.00;;;;;;;;5097461;27;45417;-43
2023/07/16 10:56:59;;;;;;;;;4.75;3.00;;;;;;;;5096349;27;45512;-48
2023/07/16 10:59:25;;;;;;;;;3.75;2.75;;;;;;;;5097006;27;45496;-49
2023/07/16 11:01:50;;;;;;;;;4.50;4.50;;;;;;;;5097464;27;45313;-48
2023/07/16 11:04:15;;;;;;;;;2.25;2.25;;;;;;;;5097994;27;45325;-49
2023/07/16 11:06:41;;;;;;;;;5.50;4.00;;;;;;;;5096877;27;45351;-41
2023/07/16 11:09:10;;;;;;;;;6.25;5.00;;;;;;;;5079551;27;47367;-43
2023/07/16 11:11:35;;;;;;;;;4.00;4.00;;;;;;;;5097969;27;45379;-49
2023/07/16 11:14:03;;;;;;;;;5.00;3.75;;;;;;;;5097655;27;45398;-49
2023/07/16 11:16:32;;;;;;;;;3.00;3.00;;;;;;;;5097747;27;45478;-48
2023/07/16 11:18:57;;;;;;;;;2.60;2.20;;;;;;;;5097552;27;45432;-45
2023/07/16 11:21:23;;;;;;;;;1.75;1.75;;;;;;;;5096951;27;45499;-47
2023/07/16 11:23:48;;;;;;;;;3.50;3.00;;;;;;;;5096863;27;45359;-46
2023/07/16 11:26:14;;;;;;;;;4.50;4.50;;;;;;;;5096547;27;45303;-49
2023/07/16 11:28:40;;;;;;;;;8.20;3.20;;;;;;;;5096675;27;45461;-47
2023/07/16 11:31:14;;;;;;;;;4.00;4.00;;;;;;;;5096985;27;45500;-43
2023/07/16 11:33:43;;;;;;;;;4.80;3.00;;;;;;;;5077774;27;45399;-43
2023/07/16 11:36:09;;;;;;;;;4.40;4.00;;;;;;;;5097548;27;45432;-47
2023/07/16 11:38:37;;;;;;;;;5.50;4.25;;;;;;;;5096773;27;46163;-43
2023/07/16 11:41:03;;;;;;;;;3.00;3.00;;;;;;;;5096067;27;45337;-43
2023/07/16 11:43:28;;;;;;;;;4.75;4.00;;;;;;;;5095986;27;45428;-40
2023/07/16 11:45:53;;;;;;;;;3.75;3.50;;;;;;;;5095389;27;45363;-45
2023/07/16 11:48:18;;;;;;;;;6.00;4.00;;;;;;;;5095149;27;46558;-47
2023/07/16 11:50:45;;;;;;;;;4.00;3.75;;;;;;;;5095625;27;45433;-42
2023/07/16 11:53:10;;;;;;;;;3.60;3.00;;;;;;;;5096546;27;45405;-44
2023/07/16 11:55:35;;;;;;;;;5.00;4.00;;;;;;;;5096484;27;45415;-42
2023/07/16 11:58:02;;;;;;;;;4.75;4.00;;;;;;;;5095224;27;47220;-44
2023/07/16 12:00:27;;;;;;;;;3.00;3.00;;;;;;;;5095040;27;45526;-41
2023/07/16 12:02:53;;;;;;;;;4.00;4.00;;;;;;;;5095349;27;45310;-48
2023/07/16 12:05:19;;;;;;;;;5.00;4.75;;;;;;;;5096327;27;45782;-44
2023/07/16 12:07:44;;;;;;;;;6.50;4.75;;;;;;;;5096300;27;46462;-46
2023/07/16 12:10:09;;;;;;;;;5.00;4.00;;;;;;;;5095065;27;45551;-48
2023/07/16 12:12:38;;;;;;;;;6.25;4.25;;;;;;;;5096504;27;45463;-44
2023/07/16 12:15:04;;;;;;;;;3.00;3.00;;;;;;;;5096356;27;45346;-45
2023/07/16 12:17:29;;;;;;;;;4.80;4.00;;;;;;;;5095884;27;46434;-46
2023/07/16 12:19:54;;;;;;;;;5.25;5.00;;;;;;;;5095832;27;45621;-46
2023/07/16 12:22:20;;;;;;;;;4.00;4.00;;;;;;;;5095406;27;45531;-43
2023/07/16 12:24:46;;;;;;;;;5.80;3.60;;;;;;;;5094535;27;45754;-43
2023/07/16 12:27:11;;;;;;;;;5.50;3.50;;;;;;;;5095796;27;46179;-42
2023/07/16 12:29:36;;;;;;;;;7.50;3.50;;;;;;;;5095425;27;45509;-47
2023/07/16 12:32:01;;;;;;;;;8.50;5.75;;;;;;;;5096303;27;45398;-45
2023/07/16 12:34:27;;;;;;;;;7.00;5.00;;;;;;;;5095831;27;45231;-45
2023/07/16 12:36:54;;;;;;;;;8.75;5.25;;;;;;;;5095313;27;46223;-45
2023/07/16 12:39:19;;;;;;;;;5.80;4.80;;;;;;;;5096049;27;45545;-44
2023/07/16 12:41:44;;;;;;;;;8.00;4.75;;;;;;;;5095987;27;45488;-42
2023/07/16 12:44:09;;;;;;;;;8.25;5.00;;;;;;;;5096368;27;45499;-44
2023/07/16 12:46:34;;;;;;;;;6.00;6.00;;;;;;;;5095785;27;45353;-43
2023/07/16 12:48:59;;;;;;;;;3.75;3.75;;;;;;;;5096106;27;45468;-41
2023/07/16 12:51:25;;;;;;;;;6.25;4.50;;;;;;;;5095969;27;45373;-44
2023/07/16 12:53:50;;;;;;;;;6.75;5.00;;;;;;;;5095842;27;45382;-44
2023/07/16 12:56:15;;;;;;;;;4.50;4.50;;;;;;;;5095982;27;46229;-43
2023/07/16 12:58:40;;;;;;;;;8.75;5.75;;;;;;;;5095500;27;45794;-42
2023/07/16 13:01:06;;;;;;;;;3.50;3.50;;;;;;;;5094345;27;45504;-41
2023/07/16 13:03:31;;;;;;;;;5.25;4.25;;;;;;;;5095939;27;45329;-42
2023/07/16 13:05:56;;;;;;;;;5.00;5.00;;;;;;;;5094403;27;46393;-43
2023/07/16 13:08:21;;;;;;;;;6.25;5.00;;;;;;;;5095458;27;45468;-42
2023/07/16 13:10:46;;;;;;;;;7.50;5.50;;;;;;;;5095524;27;45373;-45
2023/07/16 13:13:12;;;;;;;;;6.00;6.00;;;;;;;;5095867;27;45445;-43
2023/07/16 13:15:37;;;;;;;;;5.75;5.00;;;;;;;;5095366;27;45385;-44
2023/07/16 13:18:02;;;;;;;;;7.50;5.50;;;;;;;;5095626;27;45788;-45
2023/07/16 13:20:29;;;;;;;;;4.00;4.00;;;;;;;;5095201;27;45310;-46
2023/07/16 13:22:54;;;;;;;;;4.80;4.00;;;;;;;;5095399;27;45835;-45
2023/07/16 13:25:20;;;;;;;;;4.75;4.25;;;;;;;;5095298;27;45437;-42
2023/07/16 13:27:45;;;;;;;;;4.75;4.00;;;;;;;;5095213;27;45579;-44
2023/07/16 13:30:10;;;;;;;;;8.00;6.25;;;;;;;;5093744;27;45714;-44
2023/07/16 13:32:35;;;;;;;;;7.75;4.75;;;;;;;;5095154;27;45496;-45
2023/07/16 13:35:01;;;;;;;;;8.00;5.00;;;;;;;;5095193;27;46326;-44
2023/07/16 13:37:26;;;;;;;;;4.25;3.75;;;;;;;;5095139;27;45429;-49
2023/07/16 13:39:51;;;;;;;;;7.00;6.00;;;;;;;;5095085;27;45470;-40
2023/07/16 13:42:16;;;;;;;;;6.00;4.25;;;;;;;;5077148;27;45405;-47
2023/07/16 13:44:41;;;;;;;;;5.25;4.50;;;;;;;;5094743;27;46441;-43
2023/07/16 13:47:07;;;;;;;;;7.25;6.75;;;;;;;;5094560;27;45562;-42
2023/07/16 13:49:32;;;;;;;;;4.50;3.50;;;;;;;;5095332;27;45437;-47
2023/07/16 13:51:57;;;;;;;;;5.50;3.25;;;;;;;;5094810;27;45429;-47
2023/07/16 13:54:23;;;;;;;;;6.25;5.00;;;;;;;;5094681;27;46175;-46
2023/07/16 13:56:49;;;;;;;;;5.80;5.00;;;;;;;;5094642;27;45465;-46
2023/07/16 13:59:14;;;;;;;;;7.25;5.50;;;;;;;;5095074;27;45380;-45
2023/07/16 14:01:39;;;;;;;;;4.75;4.75;;;;;;;;5095133;27;45256;-45
2023/07/16 14:04:05;;;;;;;;;9.00;7.00;;;;;;;;5094878;27;45483;-40
2023/07/16 14:06:30;;;;;;;;;8.75;4.50;;;;;;;;5094715;27;45429;-41
2023/07/16 14:08:55;;;;;;;;;7.50;5.75;;;;;;;;5094863;27;45557;-44
2023/07/16 14:11:21;;;;;;;;;8.00;6.75;;;;;;;;5094704;27;45449;-43
2023/07/16 14:13:50;;;;;;;;;8.25;6.25;;;;;;;;5094004;27;46817;-46
2023/07/16 14:16:16;;;;;;;;;7.60;5.60;;;;;;;;5094336;27;45504;-43
2023/07/16 14:18:41;;;;;;;;;5.00;4.00;;;;;;;;5094954;27;45465;-42
2023/07/16 14:21:06;;;;;;;;;9.00;3.75;;;;;;;;5095417;27;45417;-48
2023/07/16 14:23:32;;;;;;;;;6.25;5.00;;;;;;;;5094676;27;46205;-44
2023/07/16 14:25:57;;;;;;;;;6.75;6.75;;;;;;;;5093782;27;45394;-47
2023/07/16 14:28:22;;;;;;;;;7.75;6.50;;;;;;;;5094225;27;45481;-48
2023/07/16 14:30:47;;;;;;;;;6.25;5.00;;;;;;;;5094779;27;45471;-45
2023/07/16 14:33:12;;;;;;;;;4.25;4.25;;;;;;;;5094399;27;45491;-43